sensor_id;sensor_type;location;lat;lon;timestamp;P1;durP1;ratioP1;P2;durP2;ratioP2
75758;SDS011;64371;47.566;19.086;2023-09-30T00:01:18;17.27;;;9.90;;
75758;SDS011;64371;47.566;19.086;2023-09-30T00:04:21;12.63;;;9.25;;
75758;SDS011;64371;47.566;19.086;2023-09-30T00:07:23;14.73;;;9.43;;
75758;SDS011;64371;47.566;19.086;2023-09-30T00:10:26;16.05;;;9.90;;
75758;SDS011;64371;47.566;19.086;2023-09-30T00:13:29;15.60;;;9.90;;
75758;SDS011;64371;47.566;19.086;2023-09-30T00:16:31;20.45;;;10.52;;
75758;SDS011;64371;47.566;19.086;2023-09-30T00:19:33;20.73;;;11.23;;
75758;SDS011;64371;47.566;19.086;2023-09-30T00:22:36;18.90;;;11.55;;
75758;SDS011;64371;47.566;19.086;2023-09-30T00:25:38;16.13;;;11.35;;
75758;SDS011;64371;47.566;19.086;2023-09-30T00:28:41;15.90;;;10.83;;
75758;SDS011;64371;47.566;19.086;2023-09-30T00:31:43;14.90;;;10.57;;
75758;SDS011;64371;47.566;19.086;2023-09-30T00:34:46;17.90;;;10.38;;
75758;SDS011;64371;47.566;19.086;2023-09-30T00:37:48;16.50;;;11.20;;
75758;SDS011;64371;47.566;19.086;2023-09-30T00:40:50;16.70;;;11.50;;
75758;SDS011;64371;47.566;19.086;2023-09-30T00:43:53;15.90;;;10.20;;
75758;SDS011;64371;47.566;19.086;2023-09-30T00:46:55;15.55;;;10.25;;
75758;SDS011;64371;47.566;19.086;2023-09-30T00:49:58;14.98;;;10.43;;
75758;SDS011;64371;47.566;19.086;2023-09-30T00:53:01;15.48;;;10.52;;
75758;SDS011;64371;47.566;19.086;2023-09-30T00:56:04;18.52;;;10.20;;
75758;SDS011;64371;47.566;19.086;2023-09-30T00:59:07;14.77;;;9.93;;
75758;SDS011;64371;47.566;19.086;2023-09-30T01:02:10;15.35;;;10.52;;
75758;SDS011;64371;47.566;19.086;2023-09-30T01:05:13;15.43;;;10.35;;
75758;SDS011;64371;47.566;19.086;2023-09-30T01:08:18;16.55;;;10.13;;
75758;SDS011;64371;47.566;19.086;2023-09-30T01:11:22;15.70;;;10.68;;
75758;SDS011;64371;47.566;19.086;2023-09-30T01:14:28;18.07;;;10.67;;
75758;SDS011;64371;47.566;19.086;2023-09-30T01:17:32;15.10;;;10.38;;
75758;SDS011;64371;47.566;19.086;2023-09-30T01:20:37;19.40;;;11.10;;
75758;SDS011;64371;47.566;19.086;2023-09-30T01:23:41;15.30;;;11.00;;
75758;SDS011;64371;47.566;19.086;2023-09-30T01:26:47;17.83;;;11.05;;
75758;SDS011;64371;47.566;19.086;2023-09-30T01:29:50;17.37;;;10.67;;
75758;SDS011;64371;47.566;19.086;2023-09-30T01:32:52;19.63;;;10.80;;
75758;SDS011;64371;47.566;19.086;2023-09-30T01:35:57;17.60;;;11.23;;
75758;SDS011;64371;47.566;19.086;2023-09-30T01:39:03;17.75;;;11.40;;
75758;SDS011;64371;47.566;19.086;2023-09-30T01:42:05;19.98;;;10.50;;
75758;SDS011;64371;47.566;19.086;2023-09-30T01:45:08;15.70;;;11.00;;
75758;SDS011;64371;47.566;19.086;2023-09-30T01:48:11;16.55;;;10.13;;
75758;SDS011;64371;47.566;19.086;2023-09-30T01:51:13;17.63;;;10.45;;
75758;SDS011;64371;47.566;19.086;2023-09-30T01:54:16;19.08;;;11.40;;
75758;SDS011;64371;47.566;19.086;2023-09-30T01:57:19;17.02;;;10.93;;
75758;SDS011;64371;47.566;19.086;2023-09-30T02:00:21;18.70;;;10.80;;
75758;SDS011;64371;47.566;19.086;2023-09-30T02:03:24;18.27;;;11.05;;
75758;SDS011;64371;47.566;19.086;2023-09-30T02:06:26;18.15;;;11.43;;
75758;SDS011;64371;47.566;19.086;2023-09-30T02:09:29;18.30;;;11.43;;
75758;SDS011;64371;47.566;19.086;2023-09-30T02:12:34;19.63;;;12.25;;
75758;SDS011;64371;47.566;19.086;2023-09-30T02:15:41;17.50;;;11.27;;
75758;SDS011;64371;47.566;19.086;2023-09-30T02:18:43;18.58;;;12.00;;
75758;SDS011;64371;47.566;19.086;2023-09-30T02:21:49;18.17;;;11.98;;
75758;SDS011;64371;47.566;19.086;2023-09-30T02:24:53;17.80;;;11.65;;
75758;SDS011;64371;47.566;19.086;2023-09-30T02:27:56;18.00;;;12.00;;
75758;SDS011;64371;47.566;19.086;2023-09-30T02:31:00;21.10;;;12.10;;
75758;SDS011;64371;47.566;19.086;2023-09-30T02:34:02;18.42;;;12.00;;
75758;SDS011;64371;47.566;19.086;2023-09-30T02:37:05;18.95;;;12.38;;
75758;SDS011;64371;47.566;19.086;2023-09-30T02:40:08;17.95;;;11.38;;
75758;SDS011;64371;47.566;19.086;2023-09-30T02:43:12;19.98;;;12.05;;
75758;SDS011;64371;47.566;19.086;2023-09-30T02:46:15;23.97;;;12.70;;
75758;SDS011;64371;47.566;19.086;2023-09-30T02:49:17;19.45;;;12.90;;
75758;SDS011;64371;47.566;19.086;2023-09-30T02:52:21;20.83;;;12.65;;
75758;SDS011;64371;47.566;19.086;2023-09-30T02:55:24;23.27;;;12.80;;
75758;SDS011;64371;47.566;19.086;2023-09-30T02:58:26;22.77;;;13.75;;
75758;SDS011;64371;47.566;19.086;2023-09-30T03:01:29;20.73;;;14.10;;
75758;SDS011;64371;47.566;19.086;2023-09-30T03:04:34;20.25;;;12.85;;
75758;SDS011;64371;47.566;19.086;2023-09-30T03:07:36;21.35;;;12.65;;
75758;SDS011;64371;47.566;19.086;2023-09-30T03:10:40;20.58;;;13.40;;
75758;SDS011;64371;47.566;19.086;2023-09-30T03:13:44;20.77;;;12.88;;
75758;SDS011;64371;47.566;19.086;2023-09-30T03:16:46;20.50;;;12.83;;
75758;SDS011;64371;47.566;19.086;2023-09-30T03:19:49;22.70;;;12.43;;
75758;SDS011;64371;47.566;19.086;2023-09-30T03:22:52;20.63;;;12.63;;
75758;SDS011;64371;47.566;19.086;2023-09-30T03:25:55;23.33;;;15.05;;
75758;SDS011;64371;47.566;19.086;2023-09-30T03:28:59;26.42;;;13.90;;
75758;SDS011;64371;47.566;19.086;2023-09-30T03:32:01;21.80;;;12.97;;
75758;SDS011;64371;47.566;19.086;2023-09-30T03:35:04;20.23;;;12.43;;
75758;SDS011;64371;47.566;19.086;2023-09-30T03:38:07;25.80;;;13.07;;
75758;SDS011;64371;47.566;19.086;2023-09-30T03:41:12;21.35;;;13.40;;
75758;SDS011;64371;47.566;19.086;2023-09-30T03:44:15;21.65;;;13.30;;
75758;SDS011;64371;47.566;19.086;2023-09-30T03:47:18;20.20;;;13.07;;
75758;SDS011;64371;47.566;19.086;2023-09-30T03:50:24;22.67;;;13.35;;
75758;SDS011;64371;47.566;19.086;2023-09-30T03:53:26;21.70;;;13.80;;
75758;SDS011;64371;47.566;19.086;2023-09-30T03:56:29;21.63;;;13.25;;
75758;SDS011;64371;47.566;19.086;2023-09-30T03:59:31;22.40;;;13.27;;
75758;SDS011;64371;47.566;19.086;2023-09-30T04:02:34;20.87;;;13.20;;
75758;SDS011;64371;47.566;19.086;2023-09-30T04:05:36;21.60;;;12.63;;
75758;SDS011;64371;47.566;19.086;2023-09-30T04:08:38;19.67;;;12.57;;
75758;SDS011;64371;47.566;19.086;2023-09-30T04:11:41;22.63;;;13.20;;
75758;SDS011;64371;47.566;19.086;2023-09-30T04:14:44;21.63;;;13.70;;
75758;SDS011;64371;47.566;19.086;2023-09-30T04:17:47;21.97;;;13.40;;
75758;SDS011;64371;47.566;19.086;2023-09-30T04:20:50;22.55;;;13.63;;
75758;SDS011;64371;47.566;19.086;2023-09-30T04:23:53;22.80;;;13.05;;
75758;SDS011;64371;47.566;19.086;2023-09-30T04:26:56;20.25;;;13.13;;
75758;SDS011;64371;47.566;19.086;2023-09-30T04:30:04;22.63;;;12.13;;
75758;SDS011;64371;47.566;19.086;2023-09-30T04:33:13;17.67;;;10.30;;
75758;SDS011;64371;47.566;19.086;2023-09-30T04:36:16;17.13;;;12.15;;
75758;SDS011;64371;47.566;19.086;2023-09-30T04:39:18;16.75;;;10.80;;
75758;SDS011;64371;47.566;19.086;2023-09-30T04:42:21;20.05;;;10.63;;
75758;SDS011;64371;47.566;19.086;2023-09-30T04:45:24;20.10;;;11.75;;
75758;SDS011;64371;47.566;19.086;2023-09-30T04:48:28;16.80;;;10.37;;
75758;SDS011;64371;47.566;19.086;2023-09-30T04:51:30;16.00;;;10.05;;
75758;SDS011;64371;47.566;19.086;2023-09-30T04:54:35;16.42;;;10.10;;
75758;SDS011;64371;47.566;19.086;2023-09-30T04:57:37;15.25;;;10.55;;
75758;SDS011;64371;47.566;19.086;2023-09-30T05:00:40;15.35;;;10.05;;
75758;SDS011;64371;47.566;19.086;2023-09-30T05:03:43;15.07;;;9.73;;
75758;SDS011;64371;47.566;19.086;2023-09-30T05:06:46;18.02;;;11.13;;
75758;SDS011;64371;47.566;19.086;2023-09-30T05:09:48;21.00;;;11.32;;
75758;SDS011;64371;47.566;19.086;2023-09-30T05:12:51;22.67;;;12.32;;
75758;SDS011;64371;47.566;19.086;2023-09-30T05:15:56;17.67;;;10.55;;
75758;SDS011;64371;47.566;19.086;2023-09-30T05:18:59;16.87;;;11.17;;
75758;SDS011;64371;47.566;19.086;2023-09-30T05:22:01;23.48;;;11.07;;
75758;SDS011;64371;47.566;19.086;2023-09-30T05:25:06;17.45;;;10.73;;
75758;SDS011;64371;47.566;19.086;2023-09-30T05:28:11;17.65;;;10.27;;
75758;SDS011;64371;47.566;19.086;2023-09-30T05:31:15;18.63;;;11.55;;
75758;SDS011;64371;47.566;19.086;2023-09-30T05:34:18;14.20;;;10.03;;
75758;SDS011;64371;47.566;19.086;2023-09-30T05:37:21;15.38;;;9.77;;
75758;SDS011;64371;47.566;19.086;2023-09-30T05:40:24;17.77;;;10.13;;
75758;SDS011;64371;47.566;19.086;2023-09-30T05:43:32;20.17;;;10.35;;
75758;SDS011;64371;47.566;19.086;2023-09-30T05:46:35;14.30;;;9.75;;
75758;SDS011;64371;47.566;19.086;2023-09-30T05:49:37;18.27;;;9.63;;
75758;SDS011;64371;47.566;19.086;2023-09-30T05:52:40;14.95;;;10.73;;
75758;SDS011;64371;47.566;19.086;2023-09-30T05:55:43;14.35;;;10.15;;
75758;SDS011;64371;47.566;19.086;2023-09-30T05:58:48;15.48;;;10.38;;
75758;SDS011;64371;47.566;19.086;2023-09-30T06:01:50;14.07;;;9.45;;
75758;SDS011;64371;47.566;19.086;2023-09-30T06:04:53;19.97;;;9.40;;
75758;SDS011;64371;47.566;19.086;2023-09-30T06:07:56;14.73;;;10.43;;
75758;SDS011;64371;47.566;19.086;2023-09-30T06:10:59;13.45;;;9.05;;
75758;SDS011;64371;47.566;19.086;2023-09-30T06:14:01;20.25;;;9.70;;
75758;SDS011;64371;47.566;19.086;2023-09-30T06:17:04;13.35;;;9.07;;
75758;SDS011;64371;47.566;19.086;2023-09-30T06:20:07;15.67;;;9.90;;
75758;SDS011;64371;47.566;19.086;2023-09-30T06:23:18;14.20;;;9.43;;
75758;SDS011;64371;47.566;19.086;2023-09-30T06:26:23;11.68;;;8.35;;
75758;SDS011;64371;47.566;19.086;2023-09-30T06:29:30;11.43;;;8.82;;
75758;SDS011;64371;47.566;19.086;2023-09-30T06:32:33;12.85;;;9.30;;
75758;SDS011;64371;47.566;19.086;2023-09-30T06:35:36;11.13;;;8.67;;
75758;SDS011;64371;47.566;19.086;2023-09-30T06:38:46;9.90;;;8.38;;
75758;SDS011;64371;47.566;19.086;2023-09-30T06:41:50;10.85;;;8.45;;
75758;SDS011;64371;47.566;19.086;2023-09-30T06:44:54;15.88;;;9.23;;
75758;SDS011;64371;47.566;19.086;2023-09-30T06:47:56;12.45;;;9.23;;
75758;SDS011;64371;47.566;19.086;2023-09-30T06:51:00;12.30;;;8.30;;
75758;SDS011;64371;47.566;19.086;2023-09-30T06:54:04;12.60;;;8.45;;
75758;SDS011;64371;47.566;19.086;2023-09-30T06:57:08;15.88;;;8.63;;
75758;SDS011;64371;47.566;19.086;2023-09-30T07:00:12;12.18;;;8.68;;
75758;SDS011;64371;47.566;19.086;2023-09-30T07:03:17;16.75;;;8.73;;
75758;SDS011;64371;47.566;19.086;2023-09-30T07:06:27;12.23;;;8.50;;
75758;SDS011;64371;47.566;19.086;2023-09-30T07:09:29;12.73;;;9.15;;
75758;SDS011;64371;47.566;19.086;2023-09-30T07:12:32;13.20;;;8.98;;
75758;SDS011;64371;47.566;19.086;2023-09-30T07:15:38;13.65;;;9.10;;
75758;SDS011;64371;47.566;19.086;2023-09-30T07:18:41;14.45;;;10.43;;
75758;SDS011;64371;47.566;19.086;2023-09-30T07:21:43;15.33;;;9.87;;
75758;SDS011;64371;47.566;19.086;2023-09-30T07:24:51;13.00;;;9.98;;
75758;SDS011;64371;47.566;19.086;2023-09-30T07:27:54;14.80;;;10.20;;
75758;SDS011;64371;47.566;19.086;2023-09-30T07:30:58;14.13;;;9.45;;
75758;SDS011;64371;47.566;19.086;2023-09-30T07:34:01;15.77;;;9.40;;
75758;SDS011;64371;47.566;19.086;2023-09-30T07:37:04;14.90;;;9.87;;
75758;SDS011;64371;47.566;19.086;2023-09-30T07:40:06;17.25;;;9.90;;
75758;SDS011;64371;47.566;19.086;2023-09-30T07:43:10;14.63;;;10.10;;
75758;SDS011;64371;47.566;19.086;2023-09-30T07:46:14;16.00;;;10.57;;
75758;SDS011;64371;47.566;19.086;2023-09-30T07:49:17;18.63;;;10.60;;
75758;SDS011;64371;47.566;19.086;2023-09-30T07:52:20;13.77;;;10.47;;
75758;SDS011;64371;47.566;19.086;2023-09-30T07:55:23;14.65;;;10.70;;
75758;SDS011;64371;47.566;19.086;2023-09-30T07:58:25;16.83;;;10.77;;
75758;SDS011;64371;47.566;19.086;2023-09-30T08:01:28;15.18;;;10.05;;
75758;SDS011;64371;47.566;19.086;2023-09-30T08:04:32;15.82;;;9.95;;
75758;SDS011;64371;47.566;19.086;2023-09-30T08:07:34;13.97;;;10.40;;
75758;SDS011;64371;47.566;19.086;2023-09-30T08:10:37;14.80;;;10.40;;
75758;SDS011;64371;47.566;19.086;2023-09-30T08:13:39;15.98;;;10.65;;
75758;SDS011;64371;47.566;19.086;2023-09-30T08:16:41;16.38;;;11.25;;
75758;SDS011;64371;47.566;19.086;2023-09-30T08:19:45;17.02;;;10.90;;
75758;SDS011;64371;47.566;19.086;2023-09-30T08:22:49;16.53;;;11.07;;
75758;SDS011;64371;47.566;19.086;2023-09-30T08:25:52;15.35;;;11.15;;
75758;SDS011;64371;47.566;19.086;2023-09-30T08:28:55;17.48;;;10.63;;
75758;SDS011;64371;47.566;19.086;2023-09-30T08:31:58;17.10;;;10.88;;
75758;SDS011;64371;47.566;19.086;2023-09-30T08:35:01;12.27;;;9.48;;
75758;SDS011;64371;47.566;19.086;2023-09-30T08:38:05;14.47;;;9.77;;
75758;SDS011;64371;47.566;19.086;2023-09-30T08:41:07;13.75;;;8.25;;
75758;SDS011;64371;47.566;19.086;2023-09-30T08:44:10;16.95;;;8.82;;
75758;SDS011;64371;47.566;19.086;2023-09-30T08:47:13;9.55;;;7.22;;
75758;SDS011;64371;47.566;19.086;2023-09-30T08:50:16;11.82;;;8.02;;
75758;SDS011;64371;47.566;19.086;2023-09-30T08:53:19;13.00;;;8.47;;
75758;SDS011;64371;47.566;19.086;2023-09-30T08:56:28;10.50;;;7.35;;
75758;SDS011;64371;47.566;19.086;2023-09-30T08:59:31;16.20;;;7.95;;
75758;SDS011;64371;47.566;19.086;2023-09-30T09:02:38;14.95;;;8.02;;
75758;SDS011;64371;47.566;19.086;2023-09-30T09:05:41;9.63;;;7.50;;
75758;SDS011;64371;47.566;19.086;2023-09-30T09:08:43;11.60;;;7.13;;
75758;SDS011;64371;47.566;19.086;2023-09-30T09:11:45;10.85;;;6.75;;
75758;SDS011;64371;47.566;19.086;2023-09-30T09:14:48;10.95;;;6.07;;
75758;SDS011;64371;47.566;19.086;2023-09-30T09:17:55;9.80;;;6.10;;
75758;SDS011;64371;47.566;19.086;2023-09-30T09:21:11;9.65;;;6.55;;
75758;SDS011;64371;47.566;19.086;2023-09-30T09:24:26;15.50;;;6.70;;
75758;SDS011;64371;47.566;19.086;2023-09-30T09:27:35;9.50;;;6.10;;
75758;SDS011;64371;47.566;19.086;2023-09-30T09:30:38;9.52;;;6.10;;
75758;SDS011;64371;47.566;19.086;2023-09-30T09:33:43;8.32;;;5.80;;
75758;SDS011;64371;47.566;19.086;2023-09-30T09:36:45;11.15;;;5.97;;
75758;SDS011;64371;47.566;19.086;2023-09-30T09:39:57;10.17;;;6.33;;
75758;SDS011;64371;47.566;19.086;2023-09-30T09:43:00;12.55;;;6.22;;
75758;SDS011;64371;47.566;19.086;2023-09-30T09:46:08;9.05;;;5.90;;
75758;SDS011;64371;47.566;19.086;2023-09-30T09:49:10;8.75;;;6.20;;
75758;SDS011;64371;47.566;19.086;2023-09-30T09:52:19;12.43;;;6.90;;
75758;SDS011;64371;47.566;19.086;2023-09-30T09:55:23;12.23;;;6.23;;
75758;SDS011;64371;47.566;19.086;2023-09-30T09:58:27;14.32;;;6.75;;
75758;SDS011;64371;47.566;19.086;2023-09-30T10:01:33;11.85;;;7.50;;
75758;SDS011;64371;47.566;19.086;2023-09-30T10:04:37;11.50;;;6.85;;
75758;SDS011;64371;47.566;19.086;2023-09-30T10:07:47;11.98;;;7.68;;
75758;SDS011;64371;47.566;19.086;2023-09-30T10:11:07;9.23;;;7.03;;
75758;SDS011;64371;47.566;19.086;2023-09-30T10:14:29;9.82;;;6.82;;
75758;SDS011;64371;47.566;19.086;2023-09-30T10:21:07;17.45;;;7.70;;
75758;SDS011;64371;47.566;19.086;2023-09-30T10:27:43;9.20;;;6.17;;
75758;SDS011;64371;47.566;19.086;2023-09-30T10:37:23;13.15;;;7.97;;
75758;SDS011;64371;47.566;19.086;2023-09-30T10:40:30;11.77;;;7.55;;
75758;SDS011;64371;47.566;19.086;2023-09-30T10:43:33;10.70;;;7.03;;
75758;SDS011;64371;47.566;19.086;2023-09-30T10:46:40;11.57;;;7.50;;
75758;SDS011;64371;47.566;19.086;2023-09-30T10:49:47;12.50;;;7.88;;
75758;SDS011;64371;47.566;19.086;2023-09-30T10:52:49;11.75;;;7.13;;
75758;SDS011;64371;47.566;19.086;2023-09-30T10:55:59;11.45;;;7.57;;
75758;SDS011;64371;47.566;19.086;2023-09-30T10:59:02;16.00;;;8.07;;
75758;SDS011;64371;47.566;19.086;2023-09-30T11:02:18;11.25;;;7.35;;
75758;SDS011;64371;47.566;19.086;2023-09-30T11:05:25;11.55;;;8.10;;
75758;SDS011;64371;47.566;19.086;2023-09-30T11:08:55;13.18;;;8.13;;
75758;SDS011;64371;47.566;19.086;2023-09-30T11:12:01;13.07;;;8.10;;
75758;SDS011;64371;47.566;19.086;2023-09-30T11:15:04;12.67;;;8.07;;
75758;SDS011;64371;47.566;19.086;2023-09-30T11:18:16;12.13;;;8.43;;
75758;SDS011;64371;47.566;19.086;2023-09-30T11:21:21;13.55;;;8.52;;
75758;SDS011;64371;47.566;19.086;2023-09-30T11:24:25;11.90;;;8.20;;
75758;SDS011;64371;47.566;19.086;2023-09-30T11:27:28;14.07;;;8.55;;
75758;SDS011;64371;47.566;19.086;2023-09-30T11:30:33;11.37;;;8.20;;
75758;SDS011;64371;47.566;19.086;2023-09-30T11:33:47;12.38;;;8.57;;
75758;SDS011;64371;47.566;19.086;2023-09-30T11:36:55;11.30;;;8.00;;
75758;SDS011;64371;47.566;19.086;2023-09-30T11:40:11;11.40;;;8.38;;
75758;SDS011;64371;47.566;19.086;2023-09-30T11:43:15;15.15;;;8.93;;
75758;SDS011;64371;47.566;19.086;2023-09-30T11:46:18;13.03;;;9.10;;
75758;SDS011;64371;47.566;19.086;2023-09-30T11:49:38;15.82;;;8.95;;
75758;SDS011;64371;47.566;19.086;2023-09-30T11:52:44;12.77;;;9.15;;
75758;SDS011;64371;47.566;19.086;2023-09-30T11:55:50;13.15;;;8.30;;
75758;SDS011;64371;47.566;19.086;2023-09-30T11:58:57;15.15;;;9.40;;
75758;SDS011;64371;47.566;19.086;2023-09-30T12:02:02;15.63;;;8.90;;
75758;SDS011;64371;47.566;19.086;2023-09-30T12:05:15;15.75;;;8.90;;
75758;SDS011;64371;47.566;19.086;2023-09-30T12:08:24;14.25;;;9.35;;
75758;SDS011;64371;47.566;19.086;2023-09-30T12:11:29;17.42;;;9.25;;
75758;SDS011;64371;47.566;19.086;2023-09-30T12:14:32;16.95;;;8.93;;
75758;SDS011;64371;47.566;19.086;2023-09-30T12:17:40;12.57;;;9.50;;
75758;SDS011;64371;47.566;19.086;2023-09-30T12:20:45;16.13;;;9.15;;
75758;SDS011;64371;47.566;19.086;2023-09-30T12:23:47;15.20;;;9.20;;
75758;SDS011;64371;47.566;19.086;2023-09-30T12:26:50;14.35;;;10.07;;
75758;SDS011;64371;47.566;19.086;2023-09-30T12:29:56;13.32;;;9.90;;
75758;SDS011;64371;47.566;19.086;2023-09-30T12:32:58;14.07;;;9.93;;
75758;SDS011;64371;47.566;19.086;2023-09-30T12:36:01;12.57;;;9.60;;
75758;SDS011;64371;47.566;19.086;2023-09-30T12:39:06;13.45;;;9.70;;
75758;SDS011;64371;47.566;19.086;2023-09-30T12:42:12;15.50;;;9.50;;
75758;SDS011;64371;47.566;19.086;2023-09-30T12:45:31;12.07;;;9.15;;
75758;SDS011;64371;47.566;19.086;2023-09-30T12:48:37;14.73;;;9.93;;
75758;SDS011;64371;47.566;19.086;2023-09-30T12:51:41;12.68;;;8.45;;
75758;SDS011;64371;47.566;19.086;2023-09-30T12:54:43;15.05;;;9.48;;
75758;SDS011;64371;47.566;19.086;2023-09-30T12:57:46;13.38;;;8.95;;
75758;SDS011;64371;47.566;19.086;2023-09-30T13:00:48;12.50;;;9.00;;
75758;SDS011;64371;47.566;19.086;2023-09-30T13:03:51;14.10;;;8.87;;
75758;SDS011;64371;47.566;19.086;2023-09-30T13:06:54;14.50;;;8.90;;
75758;SDS011;64371;47.566;19.086;2023-09-30T13:09:57;16.23;;;9.85;;
75758;SDS011;64371;47.566;19.086;2023-09-30T13:12:59;17.20;;;10.18;;
75758;SDS011;64371;47.566;19.086;2023-09-30T13:16:02;17.08;;;10.18;;
75758;SDS011;64371;47.566;19.086;2023-09-30T13:19:09;14.07;;;8.67;;
75758;SDS011;64371;47.566;19.086;2023-09-30T13:22:12;13.38;;;9.43;;
75758;SDS011;64371;47.566;19.086;2023-09-30T13:25:19;15.25;;;9.35;;
75758;SDS011;64371;47.566;19.086;2023-09-30T13:28:22;11.65;;;8.52;;
75758;SDS011;64371;47.566;19.086;2023-09-30T13:31:24;16.73;;;8.85;;
75758;SDS011;64371;47.566;19.086;2023-09-30T13:34:27;13.17;;;9.33;;
75758;SDS011;64371;47.566;19.086;2023-09-30T13:37:29;12.32;;;9.00;;
75758;SDS011;64371;47.566;19.086;2023-09-30T13:40:35;15.13;;;8.95;;
75758;SDS011;64371;47.566;19.086;2023-09-30T13:43:42;13.50;;;9.65;;
75758;SDS011;64371;47.566;19.086;2023-09-30T13:46:44;12.45;;;8.38;;
75758;SDS011;64371;47.566;19.086;2023-09-30T13:49:47;13.57;;;8.97;;
75758;SDS011;64371;47.566;19.086;2023-09-30T13:52:49;13.23;;;8.95;;
75758;SDS011;64371;47.566;19.086;2023-09-30T13:55:52;12.32;;;8.80;;
75758;SDS011;64371;47.566;19.086;2023-09-30T13:58:55;13.20;;;8.25;;
75758;SDS011;64371;47.566;19.086;2023-09-30T14:02:00;11.73;;;7.93;;
75758;SDS011;64371;47.566;19.086;2023-09-30T14:05:04;14.17;;;8.77;;
75758;SDS011;64371;47.566;19.086;2023-09-30T14:08:06;11.88;;;8.23;;
75758;SDS011;64371;47.566;19.086;2023-09-30T14:11:09;11.40;;;8.52;;
75758;SDS011;64371;47.566;19.086;2023-09-30T14:14:13;14.13;;;8.50;;
75758;SDS011;64371;47.566;19.086;2023-09-30T14:17:17;14.55;;;8.82;;
75758;SDS011;64371;47.566;19.086;2023-09-30T14:20:19;11.17;;;8.03;;
75758;SDS011;64371;47.566;19.086;2023-09-30T14:23:22;12.40;;;8.68;;
75758;SDS011;64371;47.566;19.086;2023-09-30T14:26:25;12.07;;;8.27;;
75758;SDS011;64371;47.566;19.086;2023-09-30T14:29:28;10.40;;;8.40;;
75758;SDS011;64371;47.566;19.086;2023-09-30T14:32:30;12.93;;;8.52;;
75758;SDS011;64371;47.566;19.086;2023-09-30T14:35:33;11.97;;;7.90;;
75758;SDS011;64371;47.566;19.086;2023-09-30T14:38:36;11.70;;;8.18;;
75758;SDS011;64371;47.566;19.086;2023-09-30T14:41:39;12.85;;;7.97;;
75758;SDS011;64371;47.566;19.086;2023-09-30T14:44:41;14.48;;;8.73;;
75758;SDS011;64371;47.566;19.086;2023-09-30T14:47:44;10.52;;;8.18;;
75758;SDS011;64371;47.566;19.086;2023-09-30T14:50:50;12.73;;;8.97;;
75758;SDS011;64371;47.566;19.086;2023-09-30T14:53:53;13.65;;;9.13;;
75758;SDS011;64371;47.566;19.086;2023-09-30T14:56:55;12.18;;;8.52;;
75758;SDS011;64371;47.566;19.086;2023-09-30T14:59:58;13.45;;;8.73;;
75758;SDS011;64371;47.566;19.086;2023-09-30T15:03:04;12.55;;;8.80;;
75758;SDS011;64371;47.566;19.086;2023-09-30T15:06:07;13.93;;;9.80;;
75758;SDS011;64371;47.566;19.086;2023-09-30T15:09:11;11.05;;;8.45;;
75758;SDS011;64371;47.566;19.086;2023-09-30T15:12:14;11.80;;;8.63;;
75758;SDS011;64371;47.566;19.086;2023-09-30T15:15:16;12.35;;;9.05;;
75758;SDS011;64371;47.566;19.086;2023-09-30T15:18:18;10.75;;;8.13;;
75758;SDS011;64371;47.566;19.086;2023-09-30T15:21:21;11.63;;;8.43;;
75758;SDS011;64371;47.566;19.086;2023-09-30T15:24:23;13.02;;;7.80;;
75758;SDS011;64371;47.566;19.086;2023-09-30T15:27:25;10.13;;;7.32;;
75758;SDS011;64371;47.566;19.086;2023-09-30T15:30:28;12.63;;;7.95;;
75758;SDS011;64371;47.566;19.086;2023-09-30T15:33:31;9.95;;;7.97;;
75758;SDS011;64371;47.566;19.086;2023-09-30T15:36:35;9.90;;;7.57;;
75758;SDS011;64371;47.566;19.086;2023-09-30T15:39:39;11.02;;;7.82;;
75758;SDS011;64371;47.566;19.086;2023-09-30T15:42:43;11.85;;;8.20;;
75758;SDS011;64371;47.566;19.086;2023-09-30T15:45:45;9.40;;;7.35;;
75758;SDS011;64371;47.566;19.086;2023-09-30T15:48:47;12.50;;;8.50;;
75758;SDS011;64371;47.566;19.086;2023-09-30T15:51:50;11.63;;;8.53;;
75758;SDS011;64371;47.566;19.086;2023-09-30T15:54:52;12.82;;;8.73;;
75758;SDS011;64371;47.566;19.086;2023-09-30T15:57:55;10.70;;;7.82;;
75758;SDS011;64371;47.566;19.086;2023-09-30T16:00:57;11.13;;;8.18;;
75758;SDS011;64371;47.566;19.086;2023-09-30T16:04:00;12.18;;;9.18;;
75758;SDS011;64371;47.566;19.086;2023-09-30T16:07:03;15.20;;;9.23;;
75758;SDS011;64371;47.566;19.086;2023-09-30T16:10:05;10.90;;;8.13;;
75758;SDS011;64371;47.566;19.086;2023-09-30T16:13:08;12.55;;;8.38;;
75758;SDS011;64371;47.566;19.086;2023-09-30T16:16:11;11.25;;;8.45;;
75758;SDS011;64371;47.566;19.086;2023-09-30T16:19:13;13.70;;;8.15;;
75758;SDS011;64371;47.566;19.086;2023-09-30T16:22:16;12.07;;;8.60;;
75758;SDS011;64371;47.566;19.086;2023-09-30T16:25:18;10.95;;;8.70;;
75758;SDS011;64371;47.566;19.086;2023-09-30T16:28:21;12.50;;;8.15;;
75758;SDS011;64371;47.566;19.086;2023-09-30T16:31:24;12.27;;;9.00;;
75758;SDS011;64371;47.566;19.086;2023-09-30T16:34:26;15.57;;;8.30;;
75758;SDS011;64371;47.566;19.086;2023-09-30T16:37:29;13.20;;;8.00;;
75758;SDS011;64371;47.566;19.086;2023-09-30T16:40:33;12.38;;;6.80;;
75758;SDS011;64371;47.566;19.086;2023-09-30T16:43:35;8.10;;;6.07;;
75758;SDS011;64371;47.566;19.086;2023-09-30T16:46:38;9.27;;;6.22;;
75758;SDS011;64371;47.566;19.086;2023-09-30T16:49:40;10.18;;;6.30;;
75758;SDS011;64371;47.566;19.086;2023-09-30T16:52:45;8.77;;;6.73;;
75758;SDS011;64371;47.566;19.086;2023-09-30T16:55:47;10.00;;;6.60;;
75758;SDS011;64371;47.566;19.086;2023-09-30T16:58:51;8.32;;;5.88;;
75758;SDS011;64371;47.566;19.086;2023-09-30T17:01:57;9.65;;;7.03;;
75758;SDS011;64371;47.566;19.086;2023-09-30T17:05:01;9.55;;;6.50;;
75758;SDS011;64371;47.566;19.086;2023-09-30T17:08:05;8.47;;;6.17;;
75758;SDS011;64371;47.566;19.086;2023-09-30T17:11:11;11.52;;;7.35;;
75758;SDS011;64371;47.566;19.086;2023-09-30T17:14:19;9.55;;;6.53;;
75758;SDS011;64371;47.566;19.086;2023-09-30T17:17:22;9.15;;;6.30;;
75758;SDS011;64371;47.566;19.086;2023-09-30T17:20:24;9.05;;;5.82;;
75758;SDS011;64371;47.566;19.086;2023-09-30T17:23:27;8.67;;;6.50;;
75758;SDS011;64371;47.566;19.086;2023-09-30T17:26:29;10.48;;;6.50;;
75758;SDS011;64371;47.566;19.086;2023-09-30T17:29:33;14.77;;;9.25;;
75758;SDS011;64371;47.566;19.086;2023-09-30T17:32:36;16.50;;;10.20;;
75758;SDS011;64371;47.566;19.086;2023-09-30T17:35:38;15.23;;;10.32;;
75758;SDS011;64371;47.566;19.086;2023-09-30T17:38:42;13.77;;;8.07;;
75758;SDS011;64371;47.566;19.086;2023-09-30T17:41:44;13.18;;;8.35;;
75758;SDS011;64371;47.566;19.086;2023-09-30T17:44:47;11.38;;;7.30;;
75758;SDS011;64371;47.566;19.086;2023-09-30T17:47:50;12.52;;;7.53;;
75758;SDS011;64371;47.566;19.086;2023-09-30T17:50:52;13.98;;;7.60;;
75758;SDS011;64371;47.566;19.086;2023-09-30T17:53:54;10.00;;;6.97;;
75758;SDS011;64371;47.566;19.086;2023-09-30T17:56:57;11.30;;;8.07;;
75758;SDS011;64371;47.566;19.086;2023-09-30T17:59:59;12.73;;;8.25;;
75758;SDS011;64371;47.566;19.086;2023-09-30T18:03:02;11.15;;;7.50;;
75758;SDS011;64371;47.566;19.086;2023-09-30T18:06:08;12.90;;;8.25;;